Airfield :
LOGIN :

Register | Disclaimer

   EN    FR    IT 

 










Legend :    VFR   Marginal VFR   IFR   Intensive IFR   Very Intensive IFR
Visi :
Ceiling :
>= 8 km
>= 3000ft
5 to 8 km
1000 to 3000 ft
1500m to 5 km
500 to 1000 ft
800 to 1500m
200 to 500 ft
< 800m
< 200 ft
Symbols :   Thunderstorms  Fog  Heavy snow  Heavy precipitations  Wind > 20 kt
SIGMETs :     Misc.  Thunderstorms  Icing  Turbulence  Mountain Waves  Volcanic Ashes






- Airport Elevation : 1416 ft
- IATA code : ZRH


LSZH - Zurich

CURRENT METAR :
  • 162320Z 14005KT 2000 -SN VV012 M03/M04 Q1019 R88/5903// TEMPO 1400 SN VV009

EXPIRED METARs :
  • 162250Z 14007KT 1600 -SN VV010 M03/M04 Q1019 R88/5903// TEMPO 1400 SN VV009
  • 162220Z 13007KT 2400 -SN VV014 M03/M04 Q1020 R88/19 TEMPO 1400 SN VV009
  • 162150Z 15004KT 5000 -SN FEW013 BKN027 M03/M04 Q1020 R88/19//// TEMPO 2500 SN BKN013
  • 162120Z 16004KT 7000 BKN018 OVC050 M03/M05 Q1021 R88/29//// TEMPO 2500 SN BKN013
  • 162050Z 18006KT 8000 BKN018 BKN070 M03/M05 Q1021 R88/29//// TEMPO 2500 SN BKN013

TAF TAF LSZH
Valid from the 17 at 00:00 until the 18 at 06:00 UTC


162325Z 1700/1806 14005KT 2000 -SN VV012 TX01/1715Z TNM03/1701Z TN00/1801Z
PROB40
TEMPO 1700/1708 0800 SN VV004
BECMG 1704/1707 26010KT
BECMG 1710/1712 4000 NSW BKN015
TEMPO 1710/1718 1200 SHSN BKN005
PROB30
TEMPO 1718/1806 2000 -SHSN VV010
BECMG 1721/1724 VRB03KT
ATIS : +41 43 816 2295 (DEP) +41 43 816 2294 (ARR)



MET'MAP, your aeronautical weather chart ! - Copyright ORBIFLY December 2007 - Disclaimer

ORBIFLY MET'MAP TEAM :

Programming & Development : Alexandra Zaïnal
Concept & original design : Baudouin d'Aumeries
Assistance for programming : Marc-Olivier Méhu
Technical & hardware support : Manuel Goepfert

Contact : metmap@orbifly.com




SOURCES & CREDITS :

   NOAA